Terminal Aerodrome Forecast
Issued by NWS Charleston, WV

Current Version | Previous Version | Graphics & Text | Print | Product List | Glossary On
Versions: 1 2 3 4 5 6 7 8 9 10 11 12 13 14 15 16 17 18 19
000
FTUS41 KRLX 241700 RRA
TAFEKN
TAF
KEKN 241749Z 2418/2518 18009G15KT P6SM BKN040
     FM250000 22015G35KT 3SM SHRA BR VCTS OVC020CB
     FM250300 23013G28KT 4SM SHRA BR VCTS OVC025CB
     FM250500 26012G23KT 5SM -SHRA BR OVC020
     FM250700 26009G19KT P6SM OVC015
     FM250900 25008G15KT P6SM OVC008
     FM251400 28012G18KT 6SM BR OVC015
     FM251600 28012G18KT P6SM OVC025=

USA.gov is the U.S. government's official web portal to all federal, state and local government web resources and services.